sensor_id;sensor_type;location;lat;lon;timestamp;pressure;altitude;pressure_sealevel;temperature;humidity
56630;BME280;42502;40.732;-74.254;2023-06-14T00:00:46;99592.19;;;28.83;31.26
56630;BME280;42502;40.732;-74.254;2023-06-14T00:02:49;99594.59;;;28.84;30.97
56630;BME280;42502;40.732;-74.254;2023-06-14T00:04:49;99586.13;;;28.81;30.99
56630;BME280;42502;40.732;-74.254;2023-06-14T00:06:55;99590.50;;;28.85;31.63
56630;BME280;42502;40.732;-74.254;2023-06-14T00:08:57;99581.69;;;28.80;31.26
56630;BME280;42502;40.732;-74.254;2023-06-14T00:11:03;99595.03;;;28.83;31.35
56630;BME280;42502;40.732;-74.254;2023-06-14T00:13:04;99596.97;;;28.86;31.68
56630;BME280;42502;40.732;-74.254;2023-06-14T00:15:06;99590.22;;;28.80;31.50
56630;BME280;42502;40.732;-74.254;2023-06-14T00:17:07;99590.50;;;28.85;31.57
56630;BME280;42502;40.732;-74.254;2023-06-14T00:19:09;99592.13;;;28.86;31.59
56630;BME280;42502;40.732;-74.254;2023-06-14T00:21:11;99586.88;;;28.85;31.30
56630;BME280;42502;40.732;-74.254;2023-06-14T00:23:12;99584.03;;;28.85;31.64
56630;BME280;42502;40.732;-74.254;2023-06-14T00:25:13;99581.63;;;28.83;31.13
56630;BME280;42502;40.732;-74.254;2023-06-14T00:27:14;99582.78;;;28.86;31.61
56630;BME280;42502;40.732;-74.254;2023-06-14T00:29:15;99588.09;;;28.84;31.29
56630;BME280;42502;40.732;-74.254;2023-06-14T00:31:18;99590.50;;;28.85;31.15
56630;BME280;42502;40.732;-74.254;2023-06-14T00:33:19;99590.50;;;28.85;31.51
56630;BME280;42502;40.732;-74.254;2023-06-14T00:35:20;99582.91;;;28.79;31.01
56630;BME280;42502;40.732;-74.254;2023-06-14T00:37:21;99593.78;;;28.84;31.19
56630;BME280;42502;40.732;-74.254;2023-06-14T00:39:25;99588.53;;;28.82;31.21
56630;BME280;42502;40.732;-74.254;2023-06-14T00:41:26;99582.56;;;28.77;31.07
56630;BME280;42502;40.732;-74.254;2023-06-14T00:43:27;99594.59;;;28.84;31.06
56630;BME280;42502;40.732;-74.254;2023-06-14T00:45:28;99596.63;;;28.84;31.18
56630;BME280;42502;40.732;-74.254;2023-06-14T00:47:29;99604.38;;;28.83;31.12
56630;BME280;42502;40.732;-74.254;2023-06-14T00:49:30;99598.69;;;28.83;31.09
56630;BME280;42502;40.732;-74.254;2023-06-14T00:51:34;99604.38;;;28.83;31.23
56630;BME280;42502;40.732;-74.254;2023-06-14T00:53:35;99598.69;;;28.83;31.29
56630;BME280;42502;40.732;-74.254;2023-06-14T00:55:36;99601.53;;;28.83;31.09
56630;BME280;42502;40.732;-74.254;2023-06-14T00:57:37;99605.94;;;28.84;31.66
56630;BME280;42502;40.732;-74.254;2023-06-14T00:59:48;99609.22;;;28.83;31.51
56630;BME280;42502;40.732;-74.254;2023-06-14T01:01:49;99612.91;;;28.83;31.52
56630;BME280;42502;40.732;-74.254;2023-06-14T01:03:50;99608.56;;;28.75;31.31
56630;BME280;42502;40.732;-74.254;2023-06-14T01:06:15;99614.13;;;28.82;31.82
56630;BME280;42502;40.732;-74.254;2023-06-14T01:10:53;99619.81;;;28.82;31.59
56630;BME280;42502;40.732;-74.254;2023-06-14T01:13:10;99627.09;;;28.83;31.96
56630;BME280;42502;40.732;-74.254;2023-06-14T01:15:13;99627.09;;;28.83;31.82
56630;BME280;42502;40.732;-74.254;2023-06-14T01:17:15;99627.91;;;28.84;31.71
56630;BME280;42502;40.732;-74.254;2023-06-14T01:19:17;99629.13;;;28.83;31.71
56630;BME280;42502;40.732;-74.254;2023-06-14T01:21:23;99629.56;;;28.81;31.70
56630;BME280;42502;40.732;-74.254;2023-06-14T01:23:25;99634.91;;;28.79;32.03
56630;BME280;42502;40.732;-74.254;2023-06-14T01:25:33;99627.50;;;28.82;32.04
56630;BME280;42502;40.732;-74.254;2023-06-14T01:27:38;99623.88;;;28.81;32.16
56630;BME280;42502;40.732;-74.254;2023-06-14T01:29:42;99622.66;;;28.82;31.97
56630;BME280;42502;40.732;-74.254;2023-06-14T01:31:46;99615.75;;;28.83;32.26
56630;BME280;42502;40.732;-74.254;2023-06-14T01:33:51;99617.31;;;28.84;32.07
56630;BME280;42502;40.732;-74.254;2023-06-14T01:35:53;99618.94;;;28.85;32.25
56630;BME280;42502;40.732;-74.254;2023-06-14T01:37:56;99628.69;;;28.84;32.15
56630;BME280;42502;40.732;-74.254;2023-06-14T01:39:58;99630.22;;;28.89;32.18
56630;BME280;42502;40.732;-74.254;2023-06-14T01:42:00;99622.22;;;28.84;32.13
56630;BME280;42502;40.732;-74.254;2023-06-14T01:44:04;99630.31;;;28.85;32.13
56630;BME280;42502;40.732;-74.254;2023-06-14T01:46:08;99627.03;;;28.87;31.91
56630;BME280;42502;40.732;-74.254;2023-06-14T01:48:10;99639.56;;;28.89;31.81
56630;BME280;42502;40.732;-74.254;2023-06-14T01:50:12;99624.09;;;28.91;32.03
56630;BME280;42502;40.732;-74.254;2023-06-14T01:52:13;99628.56;;;28.92;32.15
56630;BME280;42502;40.732;-74.254;2023-06-14T01:54:14;99614.78;;;28.90;32.04
56630;BME280;42502;40.732;-74.254;2023-06-14T01:56:15;99613.59;;;28.87;31.96
56630;BME280;42502;40.732;-74.254;2023-06-14T01:58:19;99628.56;;;28.92;31.81
56630;BME280;42502;40.732;-74.254;2023-06-14T02:00:23;99628.13;;;28.93;32.08
56630;BME280;42502;40.732;-74.254;2023-06-14T02:02:26;99614.34;;;28.92;31.92
56630;BME280;42502;40.732;-74.254;2023-06-14T02:04:27;99630.50;;;28.95;32.04
56630;BME280;42502;40.732;-74.254;2023-06-14T02:06:28;99624.03;;;28.94;31.88
56630;BME280;42502;40.732;-74.254;2023-06-14T02:08:29;99627.66;;;28.95;31.83
56630;BME280;42502;40.732;-74.254;2023-06-14T02:10:30;99626.06;;;28.94;31.91
56630;BME280;42502;40.732;-74.254;2023-06-14T02:12:30;99637.44;;;28.94;32.28
56630;BME280;42502;40.732;-74.254;2023-06-14T02:14:31;99624.03;;;28.94;31.86
56630;BME280;42502;40.732;-74.254;2023-06-14T02:16:32;99625.72;;;28.92;31.80
56630;BME280;42502;40.732;-74.254;2023-06-14T02:18:36;99628.47;;;28.95;31.91
56630;BME280;42502;40.732;-74.254;2023-06-14T02:20:37;99623.59;;;28.96;32.06
56630;BME280;42502;40.732;-74.254;2023-06-14T02:22:38;99622.34;;;28.97;31.94
56630;BME280;42502;40.732;-74.254;2023-06-14T02:24:39;99628.03;;;28.97;32.23
56630;BME280;42502;40.732;-74.254;2023-06-14T02:26:43;99621.56;;;28.96;32.23
56630;BME280;42502;40.732;-74.254;2023-06-14T02:28:43;99621.56;;;28.96;32.28
56630;BME280;42502;40.732;-74.254;2023-06-14T02:30:47;99624.84;;;28.95;31.96
56630;BME280;42502;40.732;-74.254;2023-06-14T02:32:57;99626.44;;;28.96;31.91
56630;BME280;42502;40.732;-74.254;2023-06-14T02:34:57;99625.19;;;28.97;31.79
56630;BME280;42502;40.732;-74.254;2023-06-14T02:37:02;99613.09;;;28.93;32.05
56630;BME280;42502;40.732;-74.254;2023-06-14T02:39:05;99623.59;;;28.96;32.29
56630;BME280;42502;40.732;-74.254;2023-06-14T02:41:06;99612.38;;;28.88;32.26
56630;BME280;42502;40.732;-74.254;2023-06-14T02:43:07;99625.63;;;28.95;32.33
56630;BME280;42502;40.732;-74.254;2023-06-14T02:45:08;99623.22;;;28.94;31.80
56630;BME280;42502;40.732;-74.254;2023-06-14T02:47:12;99622.44;;;28.93;31.86
56630;BME280;42502;40.732;-74.254;2023-06-14T02:49:13;99624.47;;;28.93;32.17
56630;BME280;42502;40.732;-74.254;2023-06-14T02:51:14;99621.63;;;28.93;31.90
56630;BME280;42502;40.732;-74.254;2023-06-14T02:53:15;99615.94;;;28.93;31.79
56630;BME280;42502;40.732;-74.254;2023-06-14T02:55:16;99611.50;;;28.92;31.70
56630;BME280;42502;40.732;-74.254;2023-06-14T02:57:17;99613.16;;;28.89;32.08
56630;BME280;42502;40.732;-74.254;2023-06-14T02:59:18;99605.94;;;28.84;32.07
56630;BME280;42502;40.732;-74.254;2023-06-14T03:01:19;99606.25;;;28.90;31.86
56630;BME280;42502;40.732;-74.254;2023-06-14T03:03:21;99596.63;;;28.84;32.04
56630;BME280;42502;40.732;-74.254;2023-06-14T03:05:24;99602.63;;;28.89;32.10
56630;BME280;42502;40.732;-74.254;2023-06-14T03:07:25;99600.25;;;28.84;32.15
56630;BME280;42502;40.732;-74.254;2023-06-14T03:09:28;99605.06;;;28.87;32.06
56630;BME280;42502;40.732;-74.254;2023-06-14T03:11:29;99596.53;;;28.87;31.92
56630;BME280;42502;40.732;-74.254;2023-06-14T03:13:36;99592.13;;;28.86;31.94
56630;BME280;42502;40.732;-74.254;2023-06-14T03:15:39;99590.50;;;28.85;31.87
56630;BME280;42502;40.732;-74.254;2023-06-14T03:17:41;99588.91;;;28.84;32.39
56630;BME280;42502;40.732;-74.254;2023-06-14T03:19:45;99595.41;;;28.85;32.12
56630;BME280;42502;40.732;-74.254;2023-06-14T03:21:46;99595.03;;;28.83;31.91
56630;BME280;42502;40.732;-74.254;2023-06-14T03:23:50;99582.84;;;28.82;32.48
56630;BME280;42502;40.732;-74.254;2023-06-14T03:25:51;99537.94;;;28.53;32.57
56630;BME280;42502;40.732;-74.254;2023-06-14T03:27:57;99579.28;;;28.78;32.50
56630;BME280;42502;40.732;-74.254;2023-06-14T03:30:01;99574.34;;;28.82;31.97
56630;BME280;42502;40.732;-74.254;2023-06-14T03:32:05;99577.63;;;28.81;32.05
56630;BME280;42502;40.732;-74.254;2023-06-14T03:34:06;99577.63;;;28.81;32.52
56630;BME280;42502;40.732;-74.254;2023-06-14T03:36:07;99583.75;;;28.79;32.51
56630;BME280;42502;40.732;-74.254;2023-06-14T03:38:08;99573.25;;;28.76;32.18
56630;BME280;42502;40.732;-74.254;2023-06-14T03:40:13;99577.66;;;28.77;32.56
56630;BME280;42502;40.732;-74.254;2023-06-14T03:42:14;99576.09;;;28.76;32.06
56630;BME280;42502;40.732;-74.254;2023-06-14T03:44:19;99572.88;;;28.74;32.18
56630;BME280;42502;40.732;-74.254;2023-06-14T03:46:25;99571.63;;;28.75;32.37
56630;BME280;42502;40.732;-74.254;2023-06-14T03:48:26;99580.94;;;28.76;32.63
56630;BME280;42502;40.732;-74.254;2023-06-14T03:50:27;99569.22;;;28.74;32.18
56630;BME280;42502;40.732;-74.254;2023-06-14T03:52:28;99573.31;;;28.73;32.52
56630;BME280;42502;40.732;-74.254;2023-06-14T03:54:29;99578.63;;;28.70;32.63
56630;BME280;42502;40.732;-74.254;2023-06-14T03:56:33;99570.53;;;28.69;32.53
56630;BME280;42502;40.732;-74.254;2023-06-14T03:58:34;99570.53;;;28.69;32.32
56630;BME280;42502;40.732;-74.254;2023-06-14T04:00:34;99571.41;;;28.66;32.27
56630;BME280;42502;40.732;-74.254;2023-06-14T04:02:38;99568.22;;;28.64;32.62
56630;BME280;42502;40.732;-74.254;2023-06-14T04:04:39;99559.25;;;28.65;32.66
56630;BME280;42502;40.732;-74.254;2023-06-14T04:06:47;99560.50;;;28.64;32.80
56630;BME280;42502;40.732;-74.254;2023-06-14T04:08:52;99556.84;;;28.64;32.29
56630;BME280;42502;40.732;-74.254;2023-06-14T04:10:53;99552.41;;;28.63;32.30
56630;BME280;42502;40.732;-74.254;2023-06-14T04:12:57;99548.00;;;28.58;32.32
56630;BME280;42502;40.732;-74.254;2023-06-14T04:14:58;99556.91;;;28.60;32.19
56630;BME280;42502;40.732;-74.254;2023-06-14T04:16:59;99551.63;;;28.59;32.65
56630;BME280;42502;40.732;-74.254;2023-06-14T04:19:00;99550.06;;;28.58;32.24
56630;BME280;42502;40.732;-74.254;2023-06-14T04:21:04;99546.84;;;28.56;32.73
56630;BME280;42502;40.732;-74.254;2023-06-14T04:23:12;99555.00;;;28.53;32.32
56630;BME280;42502;40.732;-74.254;2023-06-14T04:25:13;99550.09;;;28.54;32.65
56630;BME280;42502;40.732;-74.254;2023-06-14T04:27:15;99552.16;;;28.53;32.70
56630;BME280;42502;40.732;-74.254;2023-06-14T04:29:28;99551.38;;;28.53;32.28
56630;BME280;42502;40.732;-74.254;2023-06-14T04:31:29;99550.19;;;28.50;32.34
56630;BME280;42502;40.732;-74.254;2023-06-14T04:33:39;99543.78;;;28.46;32.55
56630;BME280;42502;40.732;-74.254;2023-06-14T04:35:43;99560.75;;;28.50;32.62
56630;BME280;42502;40.732;-74.254;2023-06-14T04:37:47;99552.22;;;28.50;32.33
56630;BME280;42502;40.732;-74.254;2023-06-14T04:39:48;99549.00;;;28.48;32.75
56630;BME280;42502;40.732;-74.254;2023-06-14T04:41:53;99551.84;;;28.48;32.50
56630;BME280;42502;40.732;-74.254;2023-06-14T04:43:57;99554.34;;;28.46;32.66
56630;BME280;42502;40.732;-74.254;2023-06-14T04:46:01;99556.38;;;28.45;32.61
56630;BME280;42502;40.732;-74.254;2023-06-14T04:48:03;99556.38;;;28.45;32.60
56630;BME280;42502;40.732;-74.254;2023-06-14T04:50:05;99551.50;;;28.46;32.63
56630;BME280;42502;40.732;-74.254;2023-06-14T04:52:07;99540.16;;;28.46;32.44
56630;BME280;42502;40.732;-74.254;2023-06-14T04:54:11;99544.22;;;28.45;32.21
56630;BME280;42502;40.732;-74.254;2023-06-14T04:56:14;99541.81;;;28.43;32.44
56630;BME280;42502;40.732;-74.254;2023-06-14T04:58:15;99545.88;;;28.42;32.67
56630;BME280;42502;40.732;-74.254;2023-06-14T05:00:19;99535.38;;;28.39;32.71
56630;BME280;42502;40.732;-74.254;2023-06-14T05:02:26;99534.94;;;28.41;32.76
56630;BME280;42502;40.732;-74.254;2023-06-14T05:04:27;99537.00;;;28.40;32.23
56630;BME280;42502;40.732;-74.254;2023-06-14T05:06:29;99537.00;;;28.40;32.70
56630;BME280;42502;40.732;-74.254;2023-06-14T05:08:30;99544.28;;;28.41;32.59
56630;BME280;42502;40.732;-74.254;2023-06-14T05:10:31;99539.06;;;28.40;32.57
56630;BME280;42502;40.732;-74.254;2023-06-14T05:12:35;99534.25;;;28.36;32.68
56630;BME280;42502;40.732;-74.254;2023-06-14T05:14:36;99523.31;;;28.35;32.48
56630;BME280;42502;40.732;-74.254;2023-06-14T05:16:37;99531.84;;;28.35;32.65
56630;BME280;42502;40.732;-74.254;2023-06-14T05:18:42;99530.22;;;28.34;32.67
56630;BME280;42502;40.732;-74.254;2023-06-14T05:20:42;99532.28;;;28.33;32.63
56630;BME280;42502;40.732;-74.254;2023-06-14T05:22:43;99518.50;;;28.32;32.34
56630;BME280;42502;40.732;-74.254;2023-06-14T05:24:44;99521.78;;;28.30;32.37
56630;BME280;42502;40.732;-74.254;2023-06-14T05:26:49;99523.00;;;28.29;32.35
56630;BME280;42502;40.732;-74.254;2023-06-14T05:28:50;99519.38;;;28.29;32.80
56630;BME280;42502;40.732;-74.254;2023-06-14T05:30:56;99533.19;;;28.27;32.35
56630;BME280;42502;40.732;-74.254;2023-06-14T05:33:01;99519.00;;;28.27;32.24
56630;BME280;42502;40.732;-74.254;2023-06-14T05:35:04;99520.25;;;28.26;32.46
56630;BME280;42502;40.732;-74.254;2023-06-14T05:37:09;99508.16;;;28.22;32.34
56630;BME280;42502;40.732;-74.254;2023-06-14T05:39:10;99512.97;;;28.25;32.66
56630;BME280;42502;40.732;-74.254;2023-06-14T05:41:11;99509.34;;;28.24;32.37
56630;BME280;42502;40.732;-74.254;2023-06-14T05:43:14;99508.16;;;28.22;32.38
56630;BME280;42502;40.732;-74.254;2023-06-14T05:45:21;99496.94;;;28.14;32.62
56630;BME280;42502;40.732;-74.254;2023-06-14T05:47:22;99504.94;;;28.19;32.74
56630;BME280;42502;40.732;-74.254;2023-06-14T05:49:23;99510.63;;;28.19;32.51
56630;BME280;42502;40.732;-74.254;2023-06-14T05:51:24;99521.63;;;28.17;32.46
56630;BME280;42502;40.732;-74.254;2023-06-14T05:53:34;99506.75;;;28.10;32.59
56630;BME280;42502;40.732;-74.254;2023-06-14T05:55:35;99512.34;;;28.13;32.23
56630;BME280;42502;40.732;-74.254;2023-06-14T05:57:36;99506.69;;;28.13;32.73
56630;BME280;42502;40.732;-74.254;2023-06-14T05:59:37;99509.91;;;28.15;32.36
56630;BME280;42502;40.732;-74.254;2023-06-14T06:01:38;99499.03;;;28.10;32.29
56630;BME280;42502;40.732;-74.254;2023-06-14T06:03:43;99499.47;;;28.09;32.54
56630;BME280;42502;40.732;-74.254;2023-06-14T06:05:48;99505.09;;;28.12;32.25
56630;BME280;42502;40.732;-74.254;2023-06-14T06:07:51;99500.41;;;28.02;32.25
56630;BME280;42502;40.732;-74.254;2023-06-14T06:09:52;99519.72;;;28.11;32.77
56630;BME280;42502;40.732;-74.254;2023-06-14T06:11:53;99526.63;;;28.10;32.33
56630;BME280;42502;40.732;-74.254;2023-06-14T06:13:54;99521.38;;;28.08;32.56
56630;BME280;42502;40.732;-74.254;2023-06-14T06:15:55;99508.13;;;28.02;32.58
56630;BME280;42502;40.732;-74.254;2023-06-14T06:17:56;99515.84;;;28.01;32.74
56630;BME280;42502;40.732;-74.254;2023-06-14T06:19:57;99520.66;;;28.04;32.77
56630;BME280;42502;40.732;-74.254;2023-06-14T06:21:58;99520.72;;;28.00;32.33
56630;BME280;42502;40.732;-74.254;2023-06-14T06:23:59;99524.75;;;28.03;32.64
56630;BME280;42502;40.732;-74.254;2023-06-14T06:26:03;99517.44;;;28.02;32.55
56630;BME280;42502;40.732;-74.254;2023-06-14T06:28:04;99518.69;;;28.01;32.46
56630;BME280;42502;40.732;-74.254;2023-06-14T06:30:09;99517.88;;;28.00;32.32
56630;BME280;42502;40.732;-74.254;2023-06-14T06:32:10;99517.88;;;28.00;32.60
56630;BME280;42502;40.732;-74.254;2023-06-14T06:34:10;99515.47;;;27.99;32.46
56630;BME280;42502;40.732;-74.254;2023-06-14T06:36:20;99521.59;;;27.97;32.70
56630;BME280;42502;40.732;-74.254;2023-06-14T06:38:24;99510.66;;;27.96;32.62
56630;BME280;42502;40.732;-74.254;2023-06-14T06:40:25;99516.34;;;27.96;32.77
56630;BME280;42502;40.732;-74.254;2023-06-14T06:42:26;99509.84;;;27.95;32.63
56630;BME280;42502;40.732;-74.254;2023-06-14T06:44:27;99509.03;;;27.95;32.54
56630;BME280;42502;40.732;-74.254;2023-06-14T06:46:28;99506.63;;;27.93;32.42
56630;BME280;42502;40.732;-74.254;2023-06-14T06:48:28;99501.38;;;27.92;32.30
56630;BME280;42502;40.732;-74.254;2023-06-14T06:50:29;99494.13;;;27.91;32.59
56630;BME280;42502;40.732;-74.254;2023-06-14T06:52:30;99498.19;;;27.90;32.25
56630;BME280;42502;40.732;-74.254;2023-06-14T06:54:34;99494.16;;;27.87;32.71
56630;BME280;42502;40.732;-74.254;2023-06-14T06:56:38;99488.56;;;27.83;32.55
56630;BME280;42502;40.732;-74.254;2023-06-14T06:58:39;99484.44;;;27.88;32.27
56630;BME280;42502;40.732;-74.254;2023-06-14T07:00:40;99474.31;;;27.87;32.73
56630;BME280;42502;40.732;-74.254;2023-06-14T07:02:41;99464.19;;;27.86;32.59
56630;BME280;42502;40.732;-74.254;2023-06-14T07:04:42;99463.38;;;27.86;32.48
56630;BME280;42502;40.732;-74.254;2023-06-14T07:06:46;99457.72;;;27.86;32.41
56630;BME280;42502;40.732;-74.254;2023-06-14T07:08:47;99456.09;;;27.84;32.54
56630;BME280;42502;40.732;-74.254;2023-06-14T07:10:51;99458.16;;;27.84;32.50
56630;BME280;42502;40.732;-74.254;2023-06-14T07:12:51;99457.78;;;27.82;32.57
56630;BME280;42502;40.732;-74.254;2023-06-14T07:14:52;99444.25;;;27.70;32.59
56630;BME280;42502;40.732;-74.254;2023-06-14T07:16:53;99452.97;;;27.79;32.14
56630;BME280;42502;40.732;-74.254;2023-06-14T07:18:54;99450.16;;;27.79;32.66
56630;BME280;42502;40.732;-74.254;2023-06-14T07:20:56;99457.84;;;27.78;32.35
56630;BME280;42502;40.732;-74.254;2023-06-14T07:22:57;99450.59;;;27.77;32.22
56630;BME280;42502;40.732;-74.254;2023-06-14T07:24:58;99446.13;;;27.76;32.58
56630;BME280;42502;40.732;-74.254;2023-06-14T07:26:59;99442.50;;;27.76;32.33
56630;BME280;42502;40.732;-74.254;2023-06-14T07:29:02;99443.72;;;27.75;32.47
56630;BME280;42502;40.732;-74.254;2023-06-14T07:31:03;99449.84;;;27.73;32.59
56630;BME280;42502;40.732;-74.254;2023-06-14T07:33:04;99426.03;;;27.67;32.23
56630;BME280;42502;40.732;-74.254;2023-06-14T07:35:08;99436.09;;;27.72;32.34
56630;BME280;42502;40.732;-74.254;2023-06-14T07:37:12;99428.00;;;27.70;32.37
56630;BME280;42502;40.732;-74.254;2023-06-14T07:39:13;99430.06;;;27.70;32.15
56630;BME280;42502;40.732;-74.254;2023-06-14T07:41:20;99427.25;;;27.66;32.32
56630;BME280;42502;40.732;-74.254;2023-06-14T07:43:23;99428.88;;;27.67;32.63
56630;BME280;42502;40.732;-74.254;2023-06-14T07:45:24;99423.63;;;27.65;32.14
56630;BME280;42502;40.732;-74.254;2023-06-14T07:47:25;99416.44;;;27.61;32.28
56630;BME280;42502;40.732;-74.254;2023-06-14T07:49:29;99425.69;;;27.65;32.44
56630;BME280;42502;40.732;-74.254;2023-06-14T07:51:30;99423.28;;;27.63;32.14
56630;BME280;42502;40.732;-74.254;2023-06-14T07:53:33;99414.06;;;27.56;32.27
56630;BME280;42502;40.732;-74.254;2023-06-14T07:55:34;99416.88;;;27.59;32.19
56630;BME280;42502;40.732;-74.254;2023-06-14T07:57:43;99414.81;;;27.60;32.31
56630;BME280;42502;40.732;-74.254;2023-06-14T07:59:44;99420.50;;;27.60;32.30
56630;BME280;42502;40.732;-74.254;2023-06-14T08:01:48;99404.84;;;27.52;32.36
56630;BME280;42502;40.732;-74.254;2023-06-14T08:03:49;99416.06;;;27.59;32.36
56630;BME280;42502;40.732;-74.254;2023-06-14T08:05:58;99404.84;;;27.52;32.34
56630;BME280;42502;40.732;-74.254;2023-06-14T08:07:59;99416.91;;;27.56;32.46
56630;BME280;42502;40.732;-74.254;2023-06-14T08:10:00;99422.59;;;27.56;32.54
56630;BME280;42502;40.732;-74.254;2023-06-14T08:12:04;99422.22;;;27.54;32.74
56630;BME280;42502;40.732;-74.254;2023-06-14T08:14:05;99423.44;;;27.53;32.42
56630;BME280;42502;40.732;-74.254;2023-06-14T08:16:06;99416.97;;;27.52;32.31
56630;BME280;42502;40.732;-74.254;2023-06-14T08:18:09;99421.03;;;27.51;32.52
56630;BME280;42502;40.732;-74.254;2023-06-14T08:20:13;99425.94;;;27.51;32.33
56630;BME280;42502;40.732;-74.254;2023-06-14T08:22:17;99423.53;;;27.49;32.42
56630;BME280;42502;40.732;-74.254;2023-06-14T08:24:21;99419.91;;;27.48;32.41
56630;BME280;42502;40.732;-74.254;2023-06-14T08:26:25;99416.25;;;27.48;32.08
56630;BME280;42502;40.732;-74.254;2023-06-14T08:28:29;99409.41;;;27.45;32.47
56630;BME280;42502;40.732;-74.254;2023-06-14T08:30:30;99412.25;;;27.45;32.63
56630;BME280;42502;40.732;-74.254;2023-06-14T08:32:31;99404.97;;;27.44;32.28
56630;BME280;42502;40.732;-74.254;2023-06-14T08:34:34;99390.88;;;27.41;32.34
56630;BME280;42502;40.732;-74.254;2023-06-14T08:36:35;99393.28;;;27.42;32.38
56630;BME280;42502;40.732;-74.254;2023-06-14T08:38:42;99384.75;;;27.42;32.47
56630;BME280;42502;40.732;-74.254;2023-06-14T08:40:45;99383.16;;;27.41;32.18
56630;BME280;42502;40.732;-74.254;2023-06-14T08:42:53;99365.78;;;27.39;32.28
56630;BME280;42502;40.732;-74.254;2023-06-14T08:44:57;99358.50;;;27.38;32.43
56630;BME280;42502;40.732;-74.254;2023-06-14T08:46:59;99368.22;;;27.37;32.39
56630;BME280;42502;40.732;-74.254;2023-06-14T08:49:04;99364.59;;;27.37;32.45
56630;BME280;42502;40.732;-74.254;2023-06-14T08:51:08;99360.63;;;27.30;32.41
56630;BME280;42502;40.732;-74.254;2023-06-14T08:53:14;99369.91;;;27.35;32.38
56630;BME280;42502;40.732;-74.254;2023-06-14T08:55:24;99364.69;;;27.33;32.41
56630;BME280;42502;40.732;-74.254;2023-06-14T08:57:30;99369.53;;;27.33;32.33
56630;BME280;42502;40.732;-74.254;2023-06-14T08:59:35;99371.56;;;27.32;32.63
56630;BME280;42502;40.732;-74.254;2023-06-14T09:01:39;99377.66;;;27.30;32.23
56630;BME280;42502;40.732;-74.254;2023-06-14T09:03:46;99368.34;;;27.30;32.51
56630;BME280;42502;40.732;-74.254;2023-06-14T09:05:48;99366.34;;;27.27;32.68
56630;BME280;42502;40.732;-74.254;2023-06-14T09:07:53;99369.56;;;27.29;32.17
56630;BME280;42502;40.732;-74.254;2023-06-14T09:10:15;99365.56;;;27.26;32.24
56630;BME280;42502;40.732;-74.254;2023-06-14T09:12:16;99362.72;;;27.26;32.48
56630;BME280;42502;40.732;-74.254;2023-06-14T09:14:21;99355.88;;;27.24;32.01
56630;BME280;42502;40.732;-74.254;2023-06-14T09:16:32;99358.72;;;27.24;32.51
56630;BME280;42502;40.732;-74.254;2023-06-14T09:18:38;99352.69;;;27.22;32.09
56630;BME280;42502;40.732;-74.254;2023-06-14T09:20:40;99349.41;;;27.23;32.63
56630;BME280;42502;40.732;-74.254;2023-06-14T09:22:41;99335.66;;;27.22;32.64
56630;BME280;42502;40.732;-74.254;2023-06-14T09:24:42;99338.50;;;27.22;32.44
56630;BME280;42502;40.732;-74.254;2023-06-14T09:26:43;99335.31;;;27.20;32.36
56630;BME280;42502;40.732;-74.254;2023-06-14T09:28:50;99342.22;;;27.19;32.14
56630;BME280;42502;40.732;-74.254;2023-06-14T09:30:54;99344.25;;;27.18;32.27
56630;BME280;42502;40.732;-74.254;2023-06-14T09:32:55;99345.47;;;27.17;32.30
56630;BME280;42502;40.732;-74.254;2023-06-14T09:34:58;99345.47;;;27.17;32.37
56630;BME280;42502;40.732;-74.254;2023-06-14T09:36:58;99339.91;;;27.10;32.25
56630;BME280;42502;40.732;-74.254;2023-06-14T09:39:01;99341.47;;;27.15;32.49
56630;BME280;42502;40.732;-74.254;2023-06-14T09:41:09;99342.28;;;27.15;32.24
56630;BME280;42502;40.732;-74.254;2023-06-14T09:43:10;99344.28;;;27.15;32.40
56630;BME280;42502;40.732;-74.254;2023-06-14T09:45:11;99347.56;;;27.13;32.15
56630;BME280;42502;40.732;-74.254;2023-06-14T09:47:23;99339.13;;;27.09;32.62
56630;BME280;42502;40.732;-74.254;2023-06-14T09:49:33;99350.47;;;27.09;32.70
56630;BME280;42502;40.732;-74.254;2023-06-14T09:51:35;99354.91;;;27.10;32.36
56630;BME280;42502;40.732;-74.254;2023-06-14T09:53:38;99346.41;;;27.10;32.08
56630;BME280;42502;40.732;-74.254;2023-06-14T09:55:41;99346.41;;;27.10;32.69
56630;BME280;42502;40.732;-74.254;2023-06-14T09:57:47;99327.91;;;27.02;32.36
56630;BME280;42502;40.732;-74.254;2023-06-14T09:59:53;99338.78;;;27.07;32.66
56630;BME280;42502;40.732;-74.254;2023-06-14T10:01:58;99347.28;;;27.07;32.39
56630;BME280;42502;40.732;-74.254;2023-06-14T10:04:03;99336.81;;;27.04;32.34
56630;BME280;42502;40.732;-74.254;2023-06-14T10:06:08;99335.97;;;27.04;32.32
56630;BME280;42502;40.732;-74.254;2023-06-14T10:08:13;99342.47;;;27.04;32.26
56630;BME280;42502;40.732;-74.254;2023-06-14T10:10:14;99331.56;;;27.03;32.28
56630;BME280;42502;40.732;-74.254;2023-06-14T10:12:18;99328.78;;;26.99;32.55
56630;BME280;42502;40.732;-74.254;2023-06-14T10:14:22;99328.34;;;27.01;32.30
56630;BME280;42502;40.732;-74.254;2023-06-14T10:16:34;99317.44;;;26.99;32.07
56630;BME280;42502;40.732;-74.254;2023-06-14T10:23:43;99306.97;;;26.96;32.22
56630;BME280;42502;40.732;-74.254;2023-06-14T10:25:49;99308.59;;;26.97;32.01
56630;BME280;42502;40.732;-74.254;2023-06-14T10:27:54;99312.63;;;26.96;32.25
56630;BME280;42502;40.732;-74.254;2023-06-14T10:30:07;99304.66;;;26.91;32.34
56630;BME280;42502;40.732;-74.254;2023-06-14T10:32:08;99305.00;;;26.93;32.26
56630;BME280;42502;40.732;-74.254;2023-06-14T10:34:10;99294.47;;;26.93;32.44
56630;BME280;42502;40.732;-74.254;2023-06-14T10:36:31;99306.66;;;26.90;32.24
56630;BME280;42502;40.732;-74.254;2023-06-14T10:38:33;99294.09;;;26.91;32.39
56630;BME280;42502;40.732;-74.254;2023-06-14T10:40:39;99292.19;;;26.85;32.53
56630;BME280;42502;40.732;-74.254;2023-06-14T10:42:51;99304.25;;;26.89;32.50